createdAt,value
2023-05-07T00:00:38.334Z,10.27
2023-05-07T00:03:05.869Z,10.50
2023-05-07T00:05:33.322Z,10.30
2023-05-07T00:08:01.564Z,10.47
2023-05-07T00:10:29.050Z,12.33
2023-05-07T00:12:56.593Z,8.63
2023-05-07T00:15:24.170Z,10.23
2023-05-07T00:17:51.678Z,7.63
2023-05-07T00:20:19.241Z,13.50
2023-05-07T00:22:46.728Z,13.43
2023-05-07T00:25:14.985Z,13.53
2023-05-07T00:27:42.431Z,11.53
2023-05-07T00:30:10.947Z,13.33
2023-05-07T00:32:39.053Z,15.37
2023-05-07T00:35:08.029Z,10.27
2023-05-07T00:37:35.428Z,13.97
2023-05-07T00:40:04.919Z,13.70
2023-05-07T00:42:33.305Z,9.03
2023-05-07T00:45:00.953Z,13.63
2023-05-07T00:47:28.486Z,11.50
2023-05-07T00:49:56.263Z,12.50
2023-05-07T00:52:26.765Z,14.63
2023-05-07T00:54:55.372Z,12.53
2023-05-07T00:57:25.695Z,11.00
2023-05-07T00:59:54.333Z,12.30
2023-05-07T01:02:22.658Z,13.43
2023-05-07T01:04:50.076Z,14.40
2023-05-07T01:07:18.301Z,12.13
2023-05-07T01:09:45.771Z,11.37
2023-05-07T01:12:13.808Z,14.97
2023-05-07T01:14:41.384Z,13.57
2023-05-07T01:17:10.083Z,14.00
2023-05-07T01:19:37.703Z,12.93
2023-05-07T01:22:10.844Z,10.77
2023-05-07T01:24:39.335Z,14.20
2023-05-07T01:27:06.958Z,10.70
2023-05-07T01:29:34.593Z,11.33
2023-05-07T01:32:03.452Z,13.73
2023-05-07T01:34:35.746Z,13.43
2023-05-07T01:37:03.868Z,14.80
2023-05-07T01:39:33.182Z,11.47
2023-05-07T01:42:01.455Z,13.77
2023-05-07T01:44:29.243Z,12.30
2023-05-07T01:46:57.713Z,13.07
2023-05-07T01:49:25.492Z,9.73
2023-05-07T01:51:53.545Z,12.03
2023-05-07T01:54:25.640Z,14.03
2023-05-07T01:56:53.134Z,15.67
2023-05-07T01:59:21.303Z,13.53
2023-05-07T02:01:48.793Z,13.90
2023-05-07T02:04:16.422Z,14.67
2023-05-07T02:06:44.080Z,15.47
2023-05-07T02:09:11.896Z,15.03
2023-05-07T02:11:39.411Z,13.07
2023-05-07T02:14:06.922Z,12.23
2023-05-07T02:16:35.132Z,14.00
2023-05-07T02:19:02.624Z,13.77
2023-05-07T02:21:31.195Z,13.33
2023-05-07T02:23:58.851Z,16.07
2023-05-07T02:26:26.434Z,16.17
2023-05-07T02:28:54.184Z,12.43
2023-05-07T02:31:21.713Z,14.10
2023-05-07T02:33:50.104Z,17.00
2023-05-07T02:36:17.630Z,15.20
2023-05-07T02:38:45.064Z,12.40
2023-05-07T02:41:12.558Z,14.27
2023-05-07T02:43:40.052Z,13.40
2023-05-07T02:46:09.250Z,7.50
2023-05-07T02:48:37.261Z,13.27
2023-05-07T02:51:06.454Z,14.03
2023-05-07T02:53:33.964Z,10.30
2023-05-07T02:56:02.738Z,11.53
2023-05-07T02:58:30.228Z,12.67
2023-05-07T03:00:57.752Z,12.17
2023-05-07T03:03:25.363Z,12.53
2023-05-07T03:05:52.878Z,10.87
2023-05-07T03:08:21.064Z,14.53
2023-05-07T03:10:48.945Z,12.47
2023-05-07T03:13:16.475Z,15.17
2023-05-07T03:15:44.095Z,14.70
2023-05-07T03:18:11.613Z,12.87
2023-05-07T03:20:39.257Z,14.23
2023-05-07T03:23:06.728Z,11.90
2023-05-07T03:25:34.843Z,10.40
2023-05-07T03:28:02.338Z,8.73
2023-05-07T03:30:30.063Z,8.00
2023-05-07T03:32:57.572Z,13.10
2023-05-07T03:35:25.181Z,8.17
2023-05-07T03:37:52.645Z,13.90
2023-05-07T03:40:20.184Z,12.20
2023-05-07T03:42:48.514Z,13.23
2023-05-07T03:45:16.084Z,11.60
2023-05-07T03:47:43.883Z,10.73
2023-05-07T03:50:12.100Z,9.70
2023-05-07T03:52:39.697Z,8.60
2023-05-07T03:55:07.916Z,10.40
2023-05-07T03:57:35.409Z,11.20
2023-05-07T04:00:04.893Z,8.20
2023-05-07T04:02:32.677Z,10.30
2023-05-07T04:05:00.370Z,8.57
2023-05-07T04:07:27.807Z,5.93
2023-05-07T04:09:55.315Z,9.63
2023-05-07T04:12:22.758Z,7.83
2023-05-07T04:14:50.255Z,7.50
2023-05-07T04:17:18.468Z,12.80
2023-05-07T04:19:45.967Z,13.27
2023-05-07T04:22:13.483Z,15.53
2023-05-07T04:24:40.948Z,13.87
2023-05-07T04:27:08.495Z,12.93
2023-05-07T04:29:35.932Z,14.50
2023-05-07T04:32:03.436Z,14.93
2023-05-07T04:34:31.631Z,12.23
2023-05-07T04:37:00.875Z,15.40
2023-05-07T04:39:28.302Z,13.03
2023-05-07T04:41:56.070Z,10.50
2023-05-07T04:44:23.567Z,9.67
2023-05-07T04:46:51.056Z,13.83
2023-05-07T04:49:18.510Z,9.27
2023-05-07T04:51:46.966Z,12.33
2023-05-07T04:54:14.488Z,11.50
2023-05-07T04:56:41.943Z,11.20
2023-05-07T04:59:09.510Z,12.17
2023-05-07T05:01:37.000Z,11.83
2023-05-07T05:04:04.595Z,9.07
2023-05-07T05:06:32.597Z,11.30
2023-05-07T05:09:00.801Z,9.50
2023-05-07T05:11:28.256Z,11.77
2023-05-07T05:13:55.670Z,12.33
2023-05-07T05:16:23.209Z,10.37
2023-05-07T05:18:52.383Z,10.60
2023-05-07T05:21:19.848Z,9.07
2023-05-07T05:23:47.511Z,9.50
2023-05-07T05:26:15.700Z,9.80
2023-05-07T05:28:43.218Z,11.83
2023-05-07T05:31:10.700Z,11.70
2023-05-07T05:33:38.243Z,10.73
2023-05-07T05:36:06.664Z,12.73
2023-05-07T05:38:34.168Z,10.90
2023-05-07T05:41:01.623Z,5.03
2023-05-07T05:43:29.757Z,6.27
2023-05-07T05:45:58.059Z,11.70
2023-05-07T05:48:26.045Z,11.40
2023-05-07T05:50:53.537Z,7.67
2023-05-07T05:53:21.075Z,6.10
2023-05-07T05:55:48.755Z,10.60
2023-05-07T05:58:16.732Z,11.00
2023-05-07T06:00:45.318Z,8.80
2023-05-07T06:03:14.422Z,8.77
2023-05-07T06:05:42.052Z,8.47
2023-05-07T06:08:09.925Z,9.90
2023-05-07T06:10:38.022Z,5.70
2023-05-07T06:13:05.543Z,6.27
2023-05-07T06:15:33.033Z,4.67
2023-05-07T06:18:01.170Z,4.27
2023-05-07T06:20:28.744Z,6.73
2023-05-07T06:22:56.174Z,4.97
2023-05-07T06:25:23.708Z,6.87
2023-05-07T06:27:51.223Z,5.73
2023-05-07T06:30:18.732Z,6.70
2023-05-07T06:32:46.251Z,5.33
2023-05-07T06:35:14.518Z,6.97
2023-05-07T06:37:43.017Z,6.17
2023-05-07T06:40:11.782Z,5.73
2023-05-07T06:42:39.416Z,5.40
2023-05-07T06:45:08.735Z,6.50
2023-05-07T06:47:36.206Z,5.97
2023-05-07T06:50:04.080Z,6.00
2023-05-07T06:52:32.356Z,4.00
2023-05-07T06:55:00.440Z,5.10
2023-05-07T06:57:27.989Z,3.80
2023-05-07T06:59:55.651Z,5.60
2023-05-07T07:02:23.108Z,5.57
2023-05-07T07:04:50.635Z,4.43
2023-05-07T07:07:18.139Z,6.80
2023-05-07T07:09:46.369Z,5.00
2023-05-07T07:12:13.839Z,5.87
2023-05-07T07:14:41.288Z,5.70
2023-05-07T07:17:08.731Z,5.10
2023-05-07T07:19:36.450Z,4.10
2023-05-07T07:22:03.865Z,5.70
2023-05-07T07:24:31.331Z,4.80
2023-05-07T07:26:59.432Z,4.70
2023-05-07T07:29:27.482Z,5.87
2023-05-07T07:31:55.168Z,3.40
2023-05-07T07:34:22.682Z,5.30
2023-05-07T07:36:50.201Z,5.17
2023-05-07T07:39:17.682Z,5.47
2023-05-07T07:41:45.084Z,4.37
2023-05-07T07:44:15.367Z,4.57
2023-05-07T07:46:43.882Z,4.47
2023-05-07T07:49:11.446Z,4.47
2023-05-07T07:51:38.958Z,3.37
2023-05-07T07:54:06.641Z,3.67
2023-05-07T07:56:34.493Z,2.47
2023-05-07T07:59:02.168Z,4.63
2023-05-07T08:01:31.814Z,4.50
2023-05-07T08:03:59.542Z,14.27
2023-05-07T08:06:27.358Z,12.30
2023-05-07T08:08:54.853Z,8.50
2023-05-07T08:11:22.517Z,3.53
2023-05-07T08:13:50.744Z,4.57
2023-05-07T08:16:18.291Z,3.40
2023-05-07T08:18:46.522Z,4.77
2023-05-07T08:21:14.055Z,3.00
2023-05-07T08:23:41.579Z,3.60
2023-05-07T08:26:09.562Z,4.03
2023-05-07T08:28:37.432Z,3.83
2023-05-07T08:31:05.239Z,2.37
2023-05-07T08:33:33.063Z,3.10
2023-05-07T08:36:01.390Z,3.10
2023-05-07T08:38:28.925Z,3.40
2023-05-07T08:40:56.619Z,4.40
2023-05-07T08:43:27.436Z,4.37
2023-05-07T08:45:56.346Z,3.77
2023-05-07T08:48:43.101Z,4.20
2023-05-07T08:51:19.981Z,4.03
2023-05-07T08:53:51.842Z,4.33
2023-05-07T08:56:25.513Z,4.77
2023-05-07T08:59:06.493Z,5.90
2023-05-07T09:01:39.424Z,4.10
2023-05-07T09:04:28.367Z,5.47
2023-05-07T09:07:19.629Z,6.00
2023-05-07T09:10:09.700Z,6.53
2023-05-07T09:12:50.070Z,5.87
2023-05-07T09:15:27.729Z,7.00
2023-05-07T09:17:55.581Z,4.53
2023-05-07T09:20:23.554Z,6.80
2023-05-07T09:22:52.173Z,5.90
2023-05-07T09:25:39.165Z,4.77
2023-05-07T09:28:13.382Z,7.00
2023-05-07T09:30:41.054Z,4.73
2023-05-07T09:33:13.208Z,7.30
2023-05-07T09:36:02.559Z,6.67
2023-05-07T09:38:43.920Z,4.80
2023-05-07T09:41:14.336Z,5.17
2023-05-07T09:43:57.561Z,4.50
2023-05-07T09:46:46.426Z,6.07
2023-05-07T09:49:19.784Z,7.97
2023-05-07T09:51:54.018Z,5.70
2023-05-07T09:54:22.399Z,7.00
2023-05-07T09:56:58.308Z,6.23
2023-05-07T09:59:35.394Z,5.80
2023-05-07T10:02:06.684Z,6.27
2023-05-07T10:04:38.651Z,7.13
2023-05-07T10:07:08.202Z,5.73
2023-05-07T10:09:39.158Z,6.73
2023-05-07T10:12:08.039Z,7.87
2023-05-07T10:14:43.306Z,7.10
2023-05-07T10:17:22.391Z,6.43
2023-05-07T10:19:57.149Z,8.00
2023-05-07T10:22:30.417Z,6.27
2023-05-07T10:25:03.366Z,4.77
2023-05-07T10:31:15.270Z,6.40
2023-05-07T10:33:45.258Z,7.70
2023-05-07T10:36:13.802Z,4.80
2023-05-07T10:38:41.894Z,6.43
2023-05-07T10:41:15.776Z,7.80
2023-05-07T10:43:44.551Z,7.00
2023-05-07T11:41:21.008Z,7.47
2023-05-07T11:43:59.254Z,3.87
2023-05-07T11:46:27.667Z,6.10
2023-05-07T11:48:57.535Z,6.20
2023-05-07T11:51:27.161Z,5.17
2023-05-07T11:53:54.793Z,5.70
2023-05-07T11:56:23.145Z,7.37
2023-05-07T11:58:52.405Z,6.83
2023-05-07T12:01:19.771Z,4.10
2023-05-07T12:03:47.657Z,6.00
2023-05-07T12:06:17.071Z,5.00
2023-05-07T12:08:47.892Z,2.40
2023-05-07T12:11:18.517Z,5.27
2023-05-07T12:13:46.984Z,3.83
2023-05-07T12:16:14.930Z,3.27
2023-05-07T12:18:42.968Z,5.00
2023-05-07T12:21:11.356Z,5.60
2023-05-07T12:23:39.634Z,5.33
2023-05-07T12:26:08.201Z,5.50
2023-05-07T12:28:39.893Z,5.30
2023-05-07T12:31:09.417Z,5.50
2023-05-07T12:33:37.456Z,6.30
2023-05-07T12:36:08.072Z,4.00
2023-05-07T12:38:40.320Z,4.27
2023-05-07T12:41:09.496Z,4.97
2023-05-07T12:43:36.976Z,5.20
2023-05-07T12:46:06.738Z,5.53
2023-05-07T12:48:36.755Z,5.30
2023-05-07T12:51:06.442Z,6.13
2023-05-07T12:53:34.151Z,3.90
2023-05-07T12:56:01.581Z,3.03
2023-05-07T12:58:31.896Z,4.60
2023-05-07T13:01:02.213Z,5.33
2023-05-07T13:03:31.505Z,5.63
2023-05-07T13:06:02.183Z,3.20
2023-05-07T13:08:32.069Z,5.93
2023-05-07T13:11:04.026Z,5.77
2023-05-07T13:13:32.828Z,4.93
2023-05-07T13:16:00.934Z,4.53
2023-05-07T13:18:30.516Z,5.73
2023-05-07T13:20:59.486Z,4.90
2023-05-07T13:23:26.897Z,3.40
2023-05-07T13:25:54.904Z,2.40
2023-05-07T13:28:22.650Z,4.20
2023-05-07T13:30:52.071Z,4.97
2023-05-07T13:33:19.823Z,3.57
2023-05-07T13:35:47.186Z,4.53
2023-05-07T13:38:16.253Z,3.80
2023-05-07T13:40:43.645Z,3.87
2023-05-07T13:43:11.739Z,4.70
2023-05-07T13:45:39.513Z,3.70
2023-05-07T13:48:07.410Z,4.00
2023-05-07T13:50:35.612Z,4.50
2023-05-07T13:53:03.577Z,3.53
2023-05-07T13:55:32.365Z,2.50
2023-05-07T13:58:00.968Z,2.93
2023-05-07T14:00:29.277Z,3.53
2023-05-07T14:02:57.474Z,4.70
2023-05-07T14:05:25.401Z,3.93
2023-05-07T14:07:54.468Z,3.83
2023-05-07T14:10:21.962Z,4.43
2023-05-07T14:12:50.408Z,3.77
2023-05-07T14:15:18.087Z,3.77
2023-05-07T14:17:46.258Z,3.73
2023-05-07T14:20:52.054Z,4.77
2023-05-07T14:23:29.796Z,2.70
2023-05-07T14:26:11.111Z,5.40
2023-05-07T14:28:39.874Z,4.00
2023-05-07T14:31:07.255Z,4.33
2023-05-07T14:33:34.674Z,3.80
2023-05-07T14:36:02.999Z,3.40
2023-05-07T14:38:30.981Z,5.50
2023-05-07T14:40:58.672Z,4.40
2023-05-07T14:43:26.039Z,4.13
2023-05-07T14:45:54.470Z,2.90
2023-05-07T14:48:21.887Z,3.73
2023-05-07T14:50:49.980Z,3.47
2023-05-07T14:53:17.548Z,4.00
2023-05-07T14:55:45.020Z,3.93
2023-05-07T14:58:12.503Z,3.00
2023-05-07T15:00:39.950Z,3.20
2023-05-07T15:03:09.715Z,5.00
2023-05-07T15:05:37.520Z,4.33
2023-05-07T15:08:05.552Z,4.23
2023-05-07T15:10:40.558Z,4.10
2023-05-07T15:13:08.446Z,3.87
2023-05-07T15:15:35.978Z,5.10
2023-05-07T15:18:03.769Z,3.60
2023-05-07T15:20:32.283Z,2.90
2023-05-07T15:22:59.805Z,3.87
2023-05-07T15:25:27.213Z,4.50
2023-05-07T15:27:54.584Z,3.80
2023-05-07T15:30:21.935Z,4.90
2023-05-07T15:32:50.270Z,4.67
2023-05-07T15:35:22.069Z,4.50
2023-05-07T15:37:50.888Z,4.63
2023-05-07T15:40:18.665Z,4.30
2023-05-07T15:42:46.831Z,6.67
2023-05-07T15:45:14.496Z,6.50
2023-05-07T15:47:41.957Z,4.13
2023-05-07T15:50:10.403Z,5.90
2023-05-07T15:52:38.810Z,4.87
2023-05-07T15:55:08.841Z,4.40
2023-05-07T15:57:36.489Z,5.53
2023-05-07T16:00:06.202Z,4.13
2023-05-07T16:02:33.564Z,5.63
2023-05-07T16:05:01.032Z,7.03
2023-05-07T16:07:28.526Z,4.93
2023-05-07T16:09:55.882Z,5.13
2023-05-07T16:12:23.996Z,6.50
2023-05-07T16:14:51.515Z,6.53
2023-05-07T16:17:18.890Z,6.53
2023-05-07T16:19:46.301Z,6.90
2023-05-07T16:22:16.122Z,5.27
2023-05-07T16:24:43.630Z,5.70
2023-05-07T16:27:10.978Z,4.50
2023-05-07T16:29:39.922Z,5.40
2023-05-07T16:32:07.588Z,4.07
2023-05-07T16:34:35.030Z,4.80
2023-05-07T16:37:04.150Z,5.80
2023-05-07T16:39:31.725Z,5.23
2023-05-07T16:41:59.183Z,4.07
2023-05-07T16:44:26.777Z,5.53
2023-05-07T16:46:55.297Z,5.70
2023-05-07T16:49:22.905Z,5.20
2023-05-07T16:51:50.267Z,6.27
2023-05-07T16:54:17.565Z,4.87
2023-05-07T16:56:45.206Z,5.00
2023-05-07T16:59:12.590Z,4.30
2023-05-07T17:01:41.993Z,3.70
2023-05-07T17:04:10.206Z,4.10
2023-05-07T17:06:37.656Z,5.63
2023-05-07T17:09:05.086Z,4.40
2023-05-07T17:11:33.354Z,5.17
2023-05-07T17:14:01.114Z,4.83
2023-05-07T17:16:29.449Z,6.77
2023-05-07T17:18:56.928Z,5.13
2023-05-07T17:21:25.372Z,6.07
2023-05-07T17:23:52.748Z,4.13
2023-05-07T17:26:20.558Z,5.23
2023-05-07T17:28:47.835Z,5.90
2023-05-07T17:31:15.194Z,3.80
2023-05-07T17:33:42.494Z,3.53
2023-05-07T17:36:10.073Z,3.47
2023-05-07T17:38:38.474Z,5.07
2023-05-07T17:41:06.072Z,3.73
2023-05-07T17:43:33.510Z,4.50
2023-05-07T17:46:02.291Z,3.80
2023-05-07T17:48:30.265Z,5.13
2023-05-07T17:51:02.781Z,3.47
2023-05-07T17:53:30.254Z,3.13
2023-05-07T17:55:58.207Z,4.33
2023-05-07T17:58:26.512Z,4.77
2023-05-07T18:00:54.618Z,3.83
2023-05-07T18:03:23.948Z,4.93
2023-05-07T18:05:51.767Z,3.50
2023-05-07T18:08:20.863Z,3.97
2023-05-07T18:10:48.269Z,3.13
2023-05-07T18:13:16.733Z,3.87
2023-05-07T18:15:46.171Z,5.17
2023-05-07T18:18:15.232Z,4.53
2023-05-07T18:20:42.867Z,4.10
2023-05-07T18:23:10.327Z,5.00
2023-05-07T18:25:37.852Z,4.27
2023-05-07T18:28:05.498Z,5.50
2023-05-07T18:30:33.717Z,5.70
2023-05-07T18:33:01.122Z,4.97
2023-05-07T18:35:28.674Z,4.83
2023-05-07T18:37:56.249Z,6.30
2023-05-07T18:40:23.722Z,6.10
2023-05-07T18:42:51.208Z,5.47
2023-05-07T18:45:19.144Z,5.77
2023-05-07T18:47:47.948Z,7.27
2023-05-07T18:50:15.819Z,6.10
2023-05-07T18:52:43.348Z,7.90
2023-05-07T18:55:11.215Z,5.67
2023-05-07T18:57:38.667Z,5.53
2023-05-07T19:00:08.627Z,5.03
2023-05-07T19:02:36.281Z,3.80
2023-05-07T19:05:05.234Z,5.77
2023-05-07T19:07:32.869Z,6.63
2023-05-07T19:10:05.536Z,6.67
2023-05-07T19:12:33.797Z,5.93
2023-05-07T19:15:01.182Z,5.83
2023-05-07T19:17:28.750Z,6.10
2023-05-07T19:19:56.240Z,6.20
2023-05-07T19:22:24.595Z,6.17
2023-05-07T19:24:53.045Z,6.27
2023-05-07T19:27:20.946Z,6.43
2023-05-07T19:29:48.700Z,4.73
2023-05-07T19:32:16.593Z,6.83
2023-05-07T19:34:44.480Z,6.30
2023-05-07T19:37:12.194Z,5.03
2023-05-07T19:39:40.314Z,6.17
2023-05-07T19:42:07.878Z,6.80
2023-05-07T19:44:35.287Z,5.10
2023-05-07T19:47:03.089Z,5.13
2023-05-07T19:49:30.483Z,7.07
2023-05-07T19:51:57.974Z,5.60
2023-05-07T19:54:25.287Z,5.97
2023-05-07T19:56:54.949Z,6.60
2023-05-07T19:59:22.945Z,5.90
2023-05-07T20:01:50.407Z,5.57
2023-05-07T20:04:17.943Z,6.87
2023-05-07T20:06:45.263Z,6.80
2023-05-07T20:09:13.010Z,7.37
2023-05-07T20:11:40.543Z,5.90
2023-05-07T20:14:09.414Z,6.23
2023-05-07T20:16:37.005Z,6.47
2023-05-07T20:19:04.751Z,6.53
2023-05-07T20:21:32.296Z,6.80
2023-05-07T20:23:59.706Z,5.80
2023-05-07T20:26:27.240Z,7.33
2023-05-07T20:28:54.832Z,6.87
2023-05-07T20:31:23.093Z,7.40
2023-05-07T20:33:50.526Z,7.23
2023-05-07T20:36:17.875Z,7.17
2023-05-07T20:38:45.468Z,6.93
2023-05-07T20:41:13.627Z,6.47
2023-05-07T20:43:41.523Z,6.20
2023-05-07T20:46:09.090Z,6.77
2023-05-07T20:48:37.343Z,5.80
2023-05-07T20:51:04.708Z,6.70
2023-05-07T20:53:32.704Z,6.60
2023-05-07T20:56:00.500Z,6.33
2023-05-07T20:58:28.786Z,5.70
2023-05-07T21:00:56.737Z,6.30
2023-05-07T21:03:24.519Z,5.77
2023-05-07T21:05:53.049Z,6.07
2023-05-07T21:08:20.494Z,7.33
2023-05-07T21:10:48.373Z,5.63
2023-05-07T21:13:16.258Z,5.80
2023-05-07T21:15:43.627Z,6.10
2023-05-07T21:18:11.330Z,4.90
2023-05-07T21:20:39.278Z,5.23
2023-05-07T21:23:07.578Z,5.67
2023-05-07T21:25:38.406Z,5.90
2023-05-07T21:28:06.721Z,5.63
2023-05-07T21:30:38.377Z,6.10
2023-05-07T21:33:17.987Z,5.43
2023-05-07T21:35:54.522Z,4.17
2023-05-07T21:38:22.784Z,5.33
2023-05-07T21:40:50.299Z,5.57
2023-05-07T21:43:17.892Z,5.00
2023-05-07T21:45:49.038Z,4.57
2023-05-07T21:48:17.917Z,5.30
2023-05-07T21:50:58.916Z,5.30
2023-05-07T21:53:31.157Z,5.63
2023-05-07T21:56:02.405Z,5.80
2023-05-07T21:58:30.690Z,5.23
2023-05-07T22:01:08.787Z,5.00
2023-05-07T22:03:36.290Z,4.03
2023-05-07T22:06:04.092Z,5.20
2023-05-07T22:08:32.290Z,5.50
2023-05-07T22:10:59.880Z,4.97
2023-05-07T22:13:27.512Z,5.40
2023-05-07T22:15:57.938Z,4.97
2023-05-07T22:18:26.166Z,4.73
2023-05-07T22:20:53.694Z,5.30
2023-05-07T22:23:21.470Z,5.33
2023-05-07T22:25:49.708Z,4.87
2023-05-07T22:28:17.134Z,4.93
2023-05-07T22:30:44.737Z,5.73
2023-05-07T22:33:12.631Z,5.60
2023-05-07T22:35:40.082Z,5.70
2023-05-07T22:38:07.661Z,6.83
2023-05-07T22:40:35.260Z,5.60
2023-05-07T22:43:03.407Z,4.73
2023-05-07T22:45:30.930Z,6.17
2023-05-07T22:47:58.518Z,4.27
2023-05-07T22:50:26.099Z,5.50
2023-05-07T22:52:53.540Z,5.50
2023-05-07T22:55:21.176Z,5.37
2023-05-07T22:57:49.123Z,5.80
2023-05-07T23:00:17.593Z,5.17
2023-05-07T23:02:45.201Z,4.80
2023-05-07T23:05:12.761Z,5.40
2023-05-07T23:07:40.417Z,3.00
2023-05-07T23:10:08.931Z,5.93
2023-05-07T23:12:36.503Z,3.50
2023-05-07T23:15:04.511Z,6.40
2023-05-07T23:17:33.760Z,6.07
2023-05-07T23:20:01.290Z,5.80
2023-05-07T23:22:28.848Z,5.47
2023-05-07T23:24:56.335Z,4.47
2023-05-07T23:27:23.795Z,6.47
2023-05-07T23:29:51.247Z,6.23
2023-05-07T23:32:18.749Z,6.20
2023-05-07T23:34:50.185Z,6.27
2023-05-07T23:37:18.212Z,6.17
2023-05-07T23:39:45.687Z,7.33
2023-05-07T23:42:13.495Z,6.20
2023-05-07T23:44:40.956Z,5.70
2023-05-07T23:47:08.431Z,5.90
2023-05-07T23:49:35.892Z,5.90
2023-05-07T23:52:04.113Z,7.07
2023-05-07T23:54:31.630Z,6.30
2023-05-07T23:56:59.160Z,6.13
2023-05-07T23:59:26.692Z,4.00
